Terminal Aerodrome Forecast
Issued by NWS Cleveland, OH

Home | Current Version | Previous Version | Graphics & Text | Print | Product List | Glossary Off
Versions: 1 2 3 4 5 6 7 8 9 10 11 12 13 14 15 16 17 18 19 20 21 22 23 24 25 26 27 28 29

000
FTUS41 KCLE 261400 AAA
TAFTOL
TAF AMD
KTOL 261417Z 2614/2712 35010KT P6SM OVC015
     FM261800 36010KT P6SM OVC020
     FM262100 35007KT P6SM BKN035
     FM270200 34004KT P6SM SCT015 BKN200=

USA.gov is the U.S. government's official web portal to all federal, state and local government web resources and services.